Ruggles Beach, Ohio
Current Conditions -  °F | °C
As of 3:13 AM on Sunday 26 Oct 2014 (Local Time) from KPCW Reporting Station
Clear Clear  
Wind Chill: 55°   Ceiling: Unl
Heat Index: 55°   Visibility: 10mi
Dew Point: 43°   Wind: 10mph
Humidity: 63%   Direction: 310°NW
Pressure: 29.86"   Gusts: NA
Location:  41.3748°N, 82.5554°W
Report Text: KPCW 260713Z AUTO 31009KT 10SM CLR 13/06 A2986 RMK AO2 $
Loading
Personal Weather Stations






























Interactive Weather Map
Tropical Storm Tracking
New forecast layout! Learn more

10-Day Weather Forecast

Advertisements
Track Severe Weather on mobile